Time,TemperatureF,DewpointF,PressureIn,WindDirection,WindDirectionDegrees,WindSpeedMPH,WindSpeedGustMPH,Humidity,HourlyPrecipIn,Conditions,Clouds,dailyrainin,SoftwareType,DateUTC
2013-01-19 00:01:00,31.3,30.5,29.83,ESE,113,0.0,0.0,97,0.00,,---,0.00,VWS V14.01,2013-01-19 08:01:00,
2013-01-19 00:06:00,31.5,30.7,29.83,ESE,113,0.0,0.0,97,0.00,,---,0.00,VWS V14.01,2013-01-19 08:06:00,
2013-01-19 00:11:00,31.5,30.7,29.83,ESE,113,0.0,0.0,97,0.00,,---,0.00,VWS V14.01,2013-01-19 08:11:00,
2013-01-19 00:16:00,31.5,30.7,29.83,ESE,113,0.0,0.0,97,0.00,,---,0.00,VWS V14.01,2013-01-19 08:16:00,
2013-01-19 00:21:00,31.3,30.5,29.83,ESE,113,0.0,0.0,97,0.00,,---,0.00,VWS V14.01,2013-01-19 08:21:00,
2013-01-19 00:27:00,31.3,30.5,29.83,ESE,113,0.0,0.0,97,0.00,,---,0.00,VWS V14.01,2013-01-19 08:27:00,
2013-01-19 00:32:00,31.1,30.4,29.80,ESE,113,0.0,0.0,97,0.00,,---,0.00,VWS V14.01,2013-01-19 08:32:00,
2013-01-19 00:37:00,31.1,30.4,29.80,ESE,107,3.6,3.6,97,0.00,,---,0.00,VWS V14.01,2013-01-19 08:37:00,
2013-01-19 00:41:00,31.1,30.4,29.80,ESE,107,0.0,0.0,97,0.00,,---,0.00,VWS V14.01,2013-01-19 08:41:00,
2013-01-19 00:46:00,30.9,30.2,29.80,ESE,107,0.0,0.0,97,0.00,,---,0.00,VWS V14.01,2013-01-19 08:46:00,
2013-01-19 00:51:00,30.9,30.2,29.80,ESE,107,0.0,0.0,97,0.00,,---,0.00,VWS V14.01,2013-01-19 08:51:00,
2013-01-19 00:56:00,31.1,30.4,29.80,ESE,107,0.0,0.0,97,0.00,,---,0.00,VWS V14.01,2013-01-19 08:56:00,
2013-01-19 01:01:00,31.1,30.4,29.80,ESE,107,0.0,0.0,97,0.00,,---,0.00,VWS V14.01,2013-01-19 09:01:00,
2013-01-19 01:06:00,30.7,30.0,29.83,East,85,0.0,0.0,97,0.00,,---,0.00,VWS V14.01,2013-01-19 09:06:00,
2013-01-19 01:11:00,30.6,29.8,29.83,East,85,0.0,0.0,97,0.00,,---,0.00,VWS V14.01,2013-01-19 09:11:00,
2013-01-19 01:16:00,30.7,30.0,29.83,ESE,113,2.2,2.2,97,0.00,,---,0.00,VWS V14.01,2013-01-19 09:16:00,
2013-01-19 01:21:00,30.9,30.2,29.83,SE,139,0.0,0.0,97,0.00,,---,0.00,VWS V14.01,2013-01-19 09:21:00,
2013-01-19 01:26:00,30.7,30.0,29.83,SE,137,0.0,0.0,97,0.00,,---,0.00,VWS V14.01,2013-01-19 09:26:00,
2013-01-19 01:31:00,30.4,29.6,29.83,ENE,78,0.0,0.0,97,0.00,,---,0.00,VWS V14.01,2013-01-19 09:31:00,
2013-01-19 01:36:00,30.6,29.8,29.83,ENE,78,0.0,0.0,97,0.00,,---,0.00,VWS V14.01,2013-01-19 09:36:00,
2013-01-19 01:41:00,30.6,29.8,29.83,ENE,78,0.0,0.0,97,0.00,,---,0.00,VWS V14.01,2013-01-19 09:41:00,
2013-01-19 01:46:00,30.7,30.0,29.83,ENE,78,0.0,0.0,97,0.00,,---,0.00,VWS V14.01,2013-01-19 09:46:00,
2013-01-19 01:51:00,30.7,30.0,29.83,ENE,78,0.0,0.0,97,0.00,,---,0.00,VWS V14.01,2013-01-19 09:51:00,
2013-01-19 01:56:00,31.1,30.4,29.83,East,79,0.0,0.0,97,0.00,,---,0.00,VWS V14.01,2013-01-19 09:56:00,
2013-01-19 02:01:00,30.6,29.8,29.83,East,79,0.0,0.0,97,0.00,,---,0.00,VWS V14.01,2013-01-19 10:01:00,
2013-01-19 02:07:00,30.2,29.5,29.83,ENE,78,0.0,0.0,97,0.00,,---,0.00,VWS V14.01,2013-01-19 10:07:00,
2013-01-19 02:12:00,30.2,29.5,29.83,West,265,2.2,2.2,97,0.00,,---,0.00,VWS V14.01,2013-01-19 10:12:00,
2013-01-19 02:17:00,30.2,29.5,29.83,West,265,0.0,0.0,97,0.00,,---,0.00,VWS V14.01,2013-01-19 10:17:00,
2013-01-19 02:22:00,30.2,29.5,29.83,West,265,0.0,0.0,97,0.00,,---,0.00,VWS V14.01,2013-01-19 10:22:00,
2013-01-19 02:27:00,30.0,29.3,29.83,West,265,0.0,0.0,97,0.00,,---,0.00,VWS V14.01,2013-01-19 10:27:00,
2013-01-19 02:32:00,29.8,29.1,29.83,West,265,0.0,0.0,97,0.00,,---,0.00,VWS V14.01,2013-01-19 10:32:00,
2013-01-19 02:37:00,29.7,28.9,29.83,West,265,0.0,0.0,97,0.00,,---,0.00,VWS V14.01,2013-01-19 10:37:00,
2013-01-19 02:42:00,29.5,28.7,29.83,NNE,15,0.0,0.0,97,0.00,,---,0.00,VWS V14.01,2013-01-19 10:42:00,
2013-01-19 02:47:00,29.5,28.7,29.83,NNE,25,0.0,0.0,97,0.00,,---,0.00,VWS V14.01,2013-01-19 10:47:00,
2013-01-19 02:52:00,29.8,29.1,29.83,NNE,25,0.0,0.0,97,0.00,,---,0.00,VWS V14.01,2013-01-19 10:52:00,
2013-01-19 02:57:00,29.8,29.1,29.83,NNE,25,0.0,0.0,97,0.00,,---,0.00,VWS V14.01,2013-01-19 10:57:00,
2013-01-19 03:02:00,30.0,29.3,29.83,NNE,25,0.0,0.0,97,0.00,,---,0.00,VWS V14.01,2013-01-19 11:02:00,
2013-01-19 03:07:00,30.0,29.3,29.83,NNE,25,0.0,0.0,97,0.00,,---,0.00,VWS V14.01,2013-01-19 11:07:00,
2013-01-19 03:12:00,29.8,29.1,29.83,West,266,2.7,2.7,97,0.00,,---,0.00,VWS V14.01,2013-01-19 11:12:00,
2013-01-19 04:48:00,29.8,29.1,29.83,ENE,78,0.0,0.0,97,0.00,,---,0.00,VWS V14.01,2013-01-19 12:48:00,
2013-01-19 04:53:00,29.7,28.9,29.83,ENE,78,0.0,0.0,97,0.00,,---,0.00,VWS V14.01,2013-01-19 12:53:00,
2013-01-19 04:58:00,30.0,29.3,29.83,ENE,78,0.0,0.0,97,0.00,,---,0.00,VWS V14.01,2013-01-19 12:58:00,
2013-01-19 05:03:00,30.0,29.3,29.83,SSW,212,0.0,0.0,97,0.00,,---,0.00,VWS V14.01,2013-01-19 13:03:00,
2013-01-19 05:08:00,29.7,28.9,29.83,SSW,212,0.0,0.0,97,0.00,,---,0.00,VWS V14.01,2013-01-19 13:08:00,
2013-01-19 05:13:00,29.7,28.9,29.83,SSW,212,0.0,0.0,97,0.00,,---,0.00,VWS V14.01,2013-01-19 13:13:00,
2013-01-19 05:18:00,29.7,28.9,29.83,SSW,212,0.0,0.0,97,0.00,,---,0.00,VWS V14.01,2013-01-19 13:18:00,
2013-01-19 05:23:00,29.5,28.7,29.83,East,98,0.0,0.0,97,0.00,,---,0.00,VWS V14.01,2013-01-19 13:23:00,
2013-01-19 05:28:00,29.7,28.9,29.83,East,98,0.0,0.0,97,0.00,,---,0.00,VWS V14.01,2013-01-19 13:28:00,
2013-01-19 05:33:00,29.5,28.7,29.83,East,98,0.0,0.0,97,0.00,,---,0.00,VWS V14.01,2013-01-19 13:33:00,
2013-01-19 05:38:00,29.5,28.7,29.83,East,98,0.0,0.0,97,0.00,,---,0.00,VWS V14.01,2013-01-19 13:38:00,
2013-01-19 05:43:00,29.5,28.7,29.83,East,98,0.0,0.0,97,0.00,,---,0.00,VWS V14.01,2013-01-19 13:43:00,
2013-01-19 05:48:00,29.1,28.4,29.83,East,98,0.0,0.0,97,0.00,,---,0.00,VWS V14.01,2013-01-19 13:48:00,
2013-01-19 05:53:00,28.9,28.2,29.83,East,98,0.0,0.0,97,0.00,,---,0.00,VWS V14.01,2013-01-19 13:53:00,
2013-01-19 05:58:00,28.9,28.2,29.83,ENE,63,0.0,0.0,97,0.00,,---,0.00,VWS V14.01,2013-01-19 13:58:00,
2013-01-19 06:03:00,29.3,28.6,29.83,ENE,63,0.0,0.0,97,0.00,,---,0.00,VWS V14.01,2013-01-19 14:03:00,
2013-01-19 06:08:00,29.3,28.6,29.83,ENE,63,0.0,0.0,97,0.00,,---,0.00,VWS V14.01,2013-01-19 14:08:00,
2013-01-19 06:13:00,29.5,28.7,29.83,ENE,63,0.0,0.0,97,0.00,,---,0.00,VWS V14.01,2013-01-19 14:13:00,
2013-01-19 06:18:00,29.3,28.6,29.83,NE,48,0.0,0.0,97,0.00,,---,0.00,VWS V14.01,2013-01-19 14:18:00,
2013-01-19 06:23:00,29.3,28.6,29.83,NE,48,0.0,0.0,97,0.00,,---,0.00,VWS V14.01,2013-01-19 14:23:00,
2013-01-19 06:28:00,29.3,28.6,29.83,NE,48,0.0,0.0,97,0.00,,---,0.00,VWS V14.01,2013-01-19 14:28:00,
2013-01-19 06:33:00,29.3,28.6,29.83,NE,48,0.0,0.0,97,0.00,,---,0.00,VWS V14.01,2013-01-19 14:33:00,
2013-01-19 06:38:00,29.5,28.7,29.83,NE,48,0.0,0.0,97,0.00,,---,0.00,VWS V14.01,2013-01-19 14:38:00,
2013-01-19 06:43:00,29.5,28.7,29.83,NE,52,0.0,0.0,97,0.00,,---,0.00,VWS V14.01,2013-01-19 14:43:00,
2013-01-19 06:48:00,29.5,28.7,29.83,NE,52,0.0,0.0,97,0.00,,---,0.00,VWS V14.01,2013-01-19 14:48:00,
2013-01-19 06:53:00,29.5,28.7,29.83,NE,52,0.0,0.0,97,0.00,,---,0.00,VWS V14.01,2013-01-19 14:53:00,
2013-01-19 06:58:00,29.5,28.7,29.83,NE,52,0.0,0.0,97,0.00,,---,0.00,VWS V14.01,2013-01-19 14:58:00,
2013-01-19 07:03:00,29.5,28.7,29.83,NE,52,0.0,0.0,97,0.00,,---,0.00,VWS V14.01,2013-01-19 15:03:00,
2013-01-19 07:08:00,29.7,28.9,29.83,NE,52,0.0,0.0,97,0.00,,---,0.00,VWS V14.01,2013-01-19 15:08:00,
2013-01-19 07:13:00,29.8,29.1,29.83,NE,52,0.0,0.0,97,0.00,,---,0.00,VWS V14.01,2013-01-19 15:13:00,
2013-01-19 07:18:00,29.8,29.1,29.83,East,96,0.0,0.0,97,0.00,,---,0.00,VWS V14.01,2013-01-19 15:18:00,
2013-01-19 07:23:00,29.7,28.9,29.83,ENE,74,2.2,2.2,97,0.00,,---,0.00,VWS V14.01,2013-01-19 15:23:00,
2013-01-19 07:28:00,29.5,28.7,29.83,SE,127,2.2,2.2,97,0.00,,---,0.00,VWS V14.01,2013-01-19 15:28:00,
2013-01-19 07:33:00,29.3,28.6,29.83,SE,127,0.0,0.0,97,0.00,,---,0.00,VWS V14.01,2013-01-19 15:33:00,
2013-01-19 07:38:00,28.9,27.9,29.83,SE,127,0.0,0.0,96,0.00,,---,0.00,VWS V14.01,2013-01-19 15:38:00,
2013-01-19 07:43:00,29.1,28.1,29.83,SE,127,0.0,0.0,96,0.00,,---,0.00,VWS V14.01,2013-01-19 15:43:00,
2013-01-19 07:48:00,29.5,28.7,29.83,SE,127,0.0,0.0,97,0.00,,---,0.00,VWS V14.01,2013-01-19 15:48:00,
2013-01-19 07:53:00,29.5,28.5,29.83,SE,127,0.0,0.0,96,0.00,,---,0.00,VWS V14.01,2013-01-19 15:53:00,
2013-01-19 07:58:00,29.3,28.3,29.83,ENE,71,0.0,0.0,96,0.00,,---,0.00,VWS V14.01,2013-01-19 15:58:00,
2013-01-19 08:03:00,29.5,28.5,29.83,ENE,71,0.0,0.0,96,0.00,,---,0.00,VWS V14.01,2013-01-19 16:03:00,
2013-01-19 08:08:00,29.7,28.7,29.83,ENE,71,0.0,0.0,96,0.00,,---,0.00,VWS V14.01,2013-01-19 16:08:00,
2013-01-19 08:13:00,29.7,28.7,29.83,ENE,71,0.0,0.0,96,0.00,,---,0.00,VWS V14.01,2013-01-19 16:13:00,
2013-01-19 08:18:00,29.7,28.7,29.85,ENE,71,0.0,0.0,96,0.00,,---,0.00,VWS V14.01,2013-01-19 16:18:00,
2013-01-19 08:23:00,29.3,28.3,29.85,ENE,71,0.0,0.0,96,0.00,,---,0.00,VWS V14.01,2013-01-19 16:23:00,
2013-01-19 08:28:00,28.9,27.9,29.85,ENE,71,0.0,0.0,96,0.00,,---,0.00,VWS V14.01,2013-01-19 16:28:00,
2013-01-19 08:33:00,28.9,27.9,29.85,ENE,71,0.0,0.0,96,0.00,,---,0.00,VWS V14.01,2013-01-19 16:33:00,
2013-01-19 08:38:00,28.8,27.8,29.85,ENE,71,0.0,0.0,96,0.00,,---,0.00,VWS V14.01,2013-01-19 16:38:00,
2013-01-19 08:43:00,29.1,28.1,29.85,ENE,71,0.0,0.0,96,0.00,,---,0.00,VWS V14.01,2013-01-19 16:43:00,
2013-01-19 08:48:00,29.3,28.3,29.85,ENE,71,0.0,0.0,96,0.00,,---,0.00,VWS V14.01,2013-01-19 16:48:00,
2013-01-19 08:53:00,29.5,28.5,29.85,ENE,71,0.0,0.0,96,0.00,,---,0.00,VWS V14.01,2013-01-19 16:53:00,
2013-01-19 08:58:00,29.1,28.1,29.85,ENE,71,0.0,0.0,96,0.00,,---,0.00,VWS V14.01,2013-01-19 16:58:00,
2013-01-19 09:03:00,29.1,28.1,29.85,ENE,71,0.0,0.0,96,0.00,,---,0.00,VWS V14.01,2013-01-19 17:03:00,
2013-01-19 09:08:00,29.3,28.3,29.85,ENE,71,0.0,0.0,96,0.00,,---,0.00,VWS V14.01,2013-01-19 17:08:00,
2013-01-19 09:13:00,29.3,28.3,29.85,ENE,71,0.0,0.0,96,0.00,,---,0.00,VWS V14.01,2013-01-19 17:13:00,
2013-01-19 09:18:00,29.5,28.5,29.85,ENE,71,0.0,0.0,96,0.00,,---,0.00,VWS V14.01,2013-01-19 17:18:00,
2013-01-19 09:23:00,29.7,28.7,29.85,ENE,71,0.0,0.0,96,0.00,,---,0.00,VWS V14.01,2013-01-19 17:23:00,
2013-01-19 09:28:00,29.7,28.7,29.85,ENE,71,0.0,0.0,96,0.00,,---,0.00,VWS V14.01,2013-01-19 17:28:00,
2013-01-19 09:34:00,29.7,28.7,29.85,ENE,71,0.0,0.0,96,0.00,,---,0.00,VWS V14.01,2013-01-19 17:34:00,
2013-01-19 09:39:00,29.7,28.7,29.85,ENE,71,0.0,0.0,96,0.00,,---,0.00,VWS V14.01,2013-01-19 17:39:00,
2013-01-19 09:44:00,29.5,28.5,29.85,SW,235,0.0,0.0,96,0.00,,---,0.00,VWS V14.01,2013-01-19 17:44:00,
2013-01-19 09:49:00,29.7,28.7,29.85,SW,235,0.0,0.0,96,0.00,,---,0.00,VWS V14.01,2013-01-19 17:49:00,
2013-01-19 09:54:00,29.7,28.7,29.85,SW,236,2.7,2.7,96,0.00,,---,0.00,VWS V14.01,2013-01-19 17:54:00,
2013-01-19 09:59:00,29.8,28.8,29.85,SW,235,0.0,0.0,96,0.00,,---,0.00,VWS V14.01,2013-01-19 17:59:00,
2013-01-19 10:04:00,30.0,29.0,29.85,SW,236,0.0,0.0,96,0.00,,---,0.00,VWS V14.01,2013-01-19 18:04:00,
2013-01-19 10:10:00,30.2,29.2,29.85,SW,236,0.0,0.0,96,0.00,,---,0.00,VWS V14.01,2013-01-19 18:10:00,
2013-01-19 10:15:00,30.2,29.2,29.85,SW,236,0.0,0.0,96,0.00,,---,0.00,VWS V14.01,2013-01-19 18:15:00,
2013-01-19 10:20:00,30.4,29.1,29.85,East,95,0.0,0.0,95,0.00,,---,0.00,VWS V14.01,2013-01-19 18:20:00,
2013-01-19 10:25:00,30.6,29.3,29.85,East,101,0.0,0.0,95,0.00,,---,0.00,VWS V14.01,2013-01-19 18:25:00,
2013-01-19 10:30:00,30.9,29.7,29.85,ESE,107,0.0,0.0,95,0.00,,---,0.00,VWS V14.01,2013-01-19 18:30:00,
2013-01-19 10:35:00,30.9,29.7,29.85,ESE,107,0.0,0.0,95,0.00,,---,0.00,VWS V14.01,2013-01-19 18:35:00,
2013-01-19 10:40:00,30.7,29.5,29.85,ESE,107,0.0,0.0,95,0.00,,---,0.00,VWS V14.01,2013-01-19 18:40:00,
2013-01-19 10:45:00,31.1,29.8,29.85,ESE,108,0.0,0.0,95,0.00,,---,0.00,VWS V14.01,2013-01-19 18:45:00,
2013-01-19 10:51:00,31.3,30.0,29.85,ESE,107,0.0,0.0,95,0.00,,---,0.00,VWS V14.01,2013-01-19 18:51:00,
2013-01-19 10:56:00,31.3,30.0,29.85,ESE,107,0.0,0.0,95,0.00,,---,0.00,VWS V14.01,2013-01-19 18:56:00,
2013-01-19 11:02:00,31.1,29.8,29.85,ESE,113,0.0,0.0,95,0.00,,---,0.00,VWS V14.01,2013-01-19 19:02:00,
2013-01-19 11:07:00,31.5,30.2,29.85,ESE,113,0.0,0.0,95,0.00,,---,0.00,VWS V14.01,2013-01-19 19:07:00,
2013-01-19 11:12:00,31.8,30.5,29.85,ESE,113,0.0,0.0,95,0.00,,---,0.00,VWS V14.01,2013-01-19 19:12:00,
2013-01-19 11:17:00,31.3,30.0,29.85,ESE,113,0.0,0.0,95,0.00,,---,0.00,VWS V14.01,2013-01-19 19:17:00,
2013-01-19 11:22:00,31.5,30.2,29.85,ESE,113,0.0,0.0,95,0.00,,---,0.00,VWS V14.01,2013-01-19 19:22:00,
2013-01-19 11:27:00,31.3,30.0,29.85,ESE,113,0.0,0.0,95,0.00,,---,0.00,VWS V14.01,2013-01-19 19:27:00,
2013-01-19 11:33:00,31.1,29.8,29.85,ESE,113,0.0,0.0,95,0.00,,---,0.00,VWS V14.01,2013-01-19 19:33:00,
2013-01-19 11:38:00,31.3,30.0,29.85,ESE,113,0.0,0.0,95,0.00,,---,0.00,VWS V14.01,2013-01-19 19:38:00,
2013-01-19 11:43:00,31.8,30.5,29.85,ESE,113,0.0,0.0,95,0.00,,---,0.00,VWS V14.01,2013-01-19 19:43:00,
2013-01-19 11:48:00,31.8,30.5,29.85,ESE,113,3.1,3.1,95,0.00,,---,0.00,VWS V14.01,2013-01-19 19:48:00,
2013-01-19 11:53:00,31.6,30.4,29.85,ESE,113,0.0,0.0,95,0.00,,---,0.00,VWS V14.01,2013-01-19 19:53:00,
2013-01-19 11:58:00,32.2,30.9,29.85,ESE,113,0.0,0.0,95,0.00,,---,0.00,VWS V14.01,2013-01-19 19:58:00,
2013-01-19 12:03:00,31.6,30.4,29.85,ESE,113,0.0,0.0,95,0.00,,---,0.00,VWS V14.01,2013-01-19 20:03:00,
2013-01-19 12:08:00,32.0,30.7,29.85,ESE,113,0.0,0.0,95,0.00,,---,0.00,VWS V14.01,2013-01-19 20:08:00,
2013-01-19 12:13:00,32.2,30.9,29.85,ESE,113,0.0,0.0,95,0.00,,---,0.00,VWS V14.01,2013-01-19 20:13:00,
2013-01-19 12:18:00,32.4,31.1,29.83,ESE,113,0.0,0.0,95,0.00,,---,0.00,VWS V14.01,2013-01-19 20:18:00,
2013-01-19 12:23:00,32.2,30.9,29.83,ESE,113,0.0,0.0,95,0.00,,---,0.00,VWS V14.01,2013-01-19 20:23:00,
2013-01-19 12:29:00,32.5,31.3,29.83,ESE,113,0.0,0.0,95,0.00,,---,0.00,VWS V14.01,2013-01-19 20:29:00,
2013-01-19 12:33:00,32.7,31.5,29.83,ESE,113,0.0,0.0,95,0.00,,---,0.00,VWS V14.01,2013-01-19 20:33:00,
2013-01-19 12:39:00,32.5,31.3,29.83,ESE,113,0.0,2.7,95,0.00,,---,0.00,VWS V14.01,2013-01-19 20:39:00,
2013-01-19 12:44:00,32.5,31.3,29.83,ESE,113,0.0,0.0,95,0.00,,---,0.00,VWS V14.01,2013-01-19 20:44:00,
2013-01-19 12:49:00,32.7,31.5,29.83,ESE,113,0.0,2.2,95,0.00,,---,0.00,VWS V14.01,2013-01-19 20:49:00,
2013-01-19 12:54:00,32.7,31.5,29.83,ESE,113,0.0,0.0,95,0.00,,---,0.00,VWS V14.01,2013-01-19 20:54:00,
2013-01-19 12:59:00,32.5,31.3,29.83,ESE,113,0.0,0.0,95,0.00,,---,0.00,VWS V14.01,2013-01-19 20:59:00,
2013-01-19 13:04:00,32.2,30.9,29.83,ESE,113,0.0,0.0,95,0.00,,---,0.00,VWS V14.01,2013-01-19 21:04:00,
2013-01-19 13:09:00,32.5,31.5,29.83,ESE,113,0.0,2.7,96,0.00,,---,0.00,VWS V14.01,2013-01-19 21:09:00,
2013-01-19 13:14:00,32.5,31.5,29.83,ESE,113,0.0,0.0,96,0.00,,---,0.00,VWS V14.01,2013-01-19 21:14:00,
2013-01-19 13:20:00,32.4,31.1,29.83,ESE,113,0.0,0.0,95,0.00,,---,0.00,VWS V14.01,2013-01-19 21:20:00,
2013-01-19 13:25:00,32.4,31.4,29.83,ESE,113,0.0,0.0,96,0.00,,---,0.00,VWS V14.01,2013-01-19 21:25:00,
2013-01-19 13:30:00,32.0,31.0,29.83,East,85,0.0,0.0,96,0.00,,---,0.00,VWS V14.01,2013-01-19 21:30:00,
2013-01-19 13:35:00,32.0,31.0,29.83,NE,37,0.0,0.0,96,0.00,,---,0.00,VWS V14.01,2013-01-19 21:35:00,
2013-01-19 13:40:00,32.4,31.4,29.83,NE,37,0.0,0.0,96,0.00,,---,0.00,VWS V14.01,2013-01-19 21:40:00,
2013-01-19 13:45:00,32.7,31.7,29.83,SE,131,0.0,0.0,96,0.00,,---,0.00,VWS V14.01,2013-01-19 21:45:00,
2013-01-19 13:51:00,32.7,31.7,29.83,SE,131,0.0,0.0,96,0.00,,---,0.00,VWS V14.01,2013-01-19 21:51:00,
2013-01-19 13:56:00,32.9,31.9,29.83,SE,131,0.0,0.0,96,0.00,,---,0.00,VWS V14.01,2013-01-19 21:56:00,
2013-01-19 14:01:00,32.9,31.9,29.83,SE,131,0.0,0.0,96,0.00,,---,0.00,VWS V14.01,2013-01-19 22:01:00,
2013-01-19 14:06:00,32.9,31.9,29.83,WSW,247,0.0,0.0,96,0.00,,---,0.00,VWS V14.01,2013-01-19 22:06:00,
2013-01-19 14:11:00,32.9,31.9,29.83,WSW,247,0.0,0.0,96,0.00,,---,0.00,VWS V14.01,2013-01-19 22:11:00,
2013-01-19 14:16:00,33.1,32.1,29.83,WSW,247,0.0,0.0,96,0.00,,---,0.00,VWS V14.01,2013-01-19 22:16:00,
2013-01-19 14:21:00,32.9,31.9,29.83,ESE,118,2.7,2.7,96,0.00,,---,0.00,VWS V14.01,2013-01-19 22:21:00,
2013-01-19 14:27:00,33.1,32.1,29.83,East,97,0.0,0.0,96,0.00,,---,0.00,VWS V14.01,2013-01-19 22:27:00,
2013-01-19 14:32:00,32.7,31.7,29.83,NE,55,0.0,0.0,96,0.00,,---,0.00,VWS V14.01,2013-01-19 22:32:00,
2013-01-19 14:37:00,32.4,31.4,29.83,NNE,22,3.1,3.1,96,0.00,,---,0.00,VWS V14.01,2013-01-19 22:37:00,
2013-01-19 14:42:00,32.5,31.5,29.83,NNE,23,0.0,0.0,96,0.00,,---,0.00,VWS V14.01,2013-01-19 22:42:00,
2013-01-19 14:47:00,32.7,31.7,29.83,ESE,108,0.0,0.0,96,0.00,,---,0.00,VWS V14.01,2013-01-19 22:47:00,
2013-01-19 14:52:00,32.5,31.5,29.83,NE,47,3.1,3.1,96,0.00,,---,0.00,VWS V14.01,2013-01-19 22:52:00,
2013-01-19 14:57:00,32.4,31.4,29.83,NE,47,0.0,0.0,96,0.00,,---,0.00,VWS V14.01,2013-01-19 22:57:00,
2013-01-19 15:02:00,32.2,31.2,29.83,NE,47,0.0,0.0,96,0.00,,---,0.00,VWS V14.01,2013-01-19 23:02:00,
2013-01-19 15:07:00,32.2,31.2,29.83,NE,47,0.0,0.0,96,0.00,,---,0.00,VWS V14.01,2013-01-19 23:07:00,
2013-01-19 15:12:00,32.5,31.5,29.83,NE,47,0.0,0.0,96,0.00,,---,0.00,VWS V14.01,2013-01-19 23:12:00,
2013-01-19 15:17:00,32.4,31.4,29.83,NE,47,0.0,0.0,96,0.00,,---,0.00,VWS V14.01,2013-01-19 23:17:00,
2013-01-19 15:23:00,32.4,31.4,29.83,NE,47,0.0,0.0,96,0.00,,---,0.00,VWS V14.01,2013-01-19 23:23:00,
2013-01-19 15:28:00,32.5,31.5,29.83,NE,47,0.0,0.0,96,0.00,,---,0.00,VWS V14.01,2013-01-19 23:28:00,
2013-01-19 15:33:00,32.7,31.7,29.83,NE,47,0.0,0.0,96,0.00,,---,0.00,VWS V14.01,2013-01-19 23:33:00,
2013-01-19 15:38:00,32.5,31.5,29.83,NE,47,0.0,0.0,96,0.00,,---,0.00,VWS V14.01,2013-01-19 23:38:00,
2013-01-19 15:43:00,32.4,31.4,29.83,NE,47,0.0,0.0,96,0.00,,---,0.00,VWS V14.01,2013-01-19 23:43:00,
2013-01-19 15:48:00,32.4,31.4,29.83,NE,47,0.0,0.0,96,0.00,,---,0.00,VWS V14.01,2013-01-19 23:48:00,
2013-01-19 15:53:00,32.0,31.0,29.83,NE,47,0.0,0.0,96,0.00,,---,0.00,VWS V14.01,2013-01-19 23:53:00,
2013-01-19 15:58:00,32.2,31.2,29.83,NE,47,0.0,0.0,96,0.00,,---,0.00,VWS V14.01,2013-01-19 23:58:00,
2013-01-19 16:04:00,32.2,31.2,29.83,ESE,105,0.0,0.0,96,0.00,,---,0.00,VWS V14.01,2013-01-20 00:04:00,
2013-01-19 16:09:00,31.8,30.8,29.83,SSW,210,0.0,0.0,96,0.00,,---,0.00,VWS V14.01,2013-01-20 00:09:00,
2013-01-19 16:14:00,31.8,30.8,29.83,SW,231,0.0,2.7,96,0.00,,---,0.00,VWS V14.01,2013-01-20 00:14:00,
2013-01-19 16:19:00,31.8,30.8,29.83,SW,231,0.0,2.2,96,0.00,,---,0.00,VWS V14.01,2013-01-20 00:19:00,
2013-01-19 16:24:00,31.8,30.8,29.83,West,264,0.0,0.0,96,0.00,,---,0.00,VWS V14.01,2013-01-20 00:24:00,
2013-01-19 16:29:00,32.0,31.0,29.83,West,264,0.0,0.0,96,0.00,,---,0.00,VWS V14.01,2013-01-20 00:29:00,
2013-01-19 16:34:00,32.2,31.2,29.83,West,264,0.0,0.0,96,0.00,,---,0.00,VWS V14.01,2013-01-20 00:34:00,
2013-01-19 16:39:00,32.2,31.2,29.83,West,264,0.0,0.0,96,0.00,,---,0.00,VWS V14.01,2013-01-20 00:39:00,
2013-01-19 16:44:00,31.8,30.8,29.83,West,264,0.0,0.0,96,0.00,,---,0.00,VWS V14.01,2013-01-20 00:44:00,
2013-01-19 16:49:00,31.8,30.8,29.83,West,264,0.0,0.0,96,0.00,,---,0.00,VWS V14.01,2013-01-20 00:49:00,
2013-01-19 16:54:00,32.0,31.0,29.83,West,264,0.0,0.0,96,0.00,,---,0.00,VWS V14.01,2013-01-20 00:54:00,
2013-01-19 16:59:00,32.0,31.0,29.83,West,264,0.0,0.0,96,0.00,,---,0.00,VWS V14.01,2013-01-20 00:59:00,
2013-01-19 17:04:00,32.0,31.0,29.83,West,264,0.0,0.0,96,0.00,,---,0.00,VWS V14.01,2013-01-20 01:04:00,
2013-01-19 17:09:00,32.2,31.2,29.83,West,264,0.0,0.0,96,0.00,,---,0.00,VWS V14.01,2013-01-20 01:09:00,
2013-01-19 17:15:00,32.2,31.2,29.83,West,264,0.0,0.0,96,0.00,,---,0.00,VWS V14.01,2013-01-20 01:15:00,
2013-01-19 17:20:00,32.2,31.2,29.83,West,264,0.0,0.0,96,0.00,,---,0.00,VWS V14.01,2013-01-20 01:20:00,
2013-01-19 17:25:00,32.2,31.2,29.83,WNW,301,0.0,0.0,96,0.00,,---,0.00,VWS V14.01,2013-01-20 01:25:00,
2013-01-19 17:30:00,32.0,31.0,29.83,WNW,303,0.0,0.0,96,0.00,,---,0.00,VWS V14.01,2013-01-20 01:30:00,
2013-01-19 17:35:00,32.0,31.0,29.83,WNW,303,0.0,0.0,96,0.00,,---,0.00,VWS V14.01,2013-01-20 01:35:00,
2013-01-19 17:40:00,32.0,31.0,29.83,East,88,0.0,0.0,96,0.00,,---,0.00,VWS V14.01,2013-01-20 01:40:00,
2013-01-19 17:45:00,32.0,31.0,29.83,East,88,0.0,0.0,96,0.00,,---,0.00,VWS V14.01,2013-01-20 01:45:00,
2013-01-19 17:50:00,32.0,31.0,29.83,East,88,0.0,0.0,96,0.00,,---,0.00,VWS V14.01,2013-01-20 01:50:00,
2013-01-19 17:55:00,32.0,31.0,29.83,East,80,2.7,2.7,96,0.00,,---,0.00,VWS V14.01,2013-01-20 01:55:00,
2013-01-19 18:00:00,31.8,30.8,29.83,East,80,0.0,0.0,96,0.00,,---,0.00,VWS V14.01,2013-01-20 02:00:00,
2013-01-19 18:05:00,32.0,31.0,29.83,East,80,0.0,0.0,96,0.00,,---,0.00,VWS V14.01,2013-01-20 02:05:00,
2013-01-19 18:10:00,32.0,31.0,29.83,East,80,0.0,0.0,96,0.00,,---,0.00,VWS V14.01,2013-01-20 02:10:00,
2013-01-19 18:15:00,31.5,30.5,29.83,East,80,0.0,0.0,96,0.00,,---,0.00,VWS V14.01,2013-01-20 02:15:00,
2013-01-19 18:20:00,31.5,30.5,29.83,East,80,0.0,0.0,96,0.00,,---,0.00,VWS V14.01,2013-01-20 02:20:00,
2013-01-19 18:25:00,31.6,30.6,29.83,East,80,2.2,2.2,96,0.00,,---,0.00,VWS V14.01,2013-01-20 02:25:00,
2013-01-19 18:30:00,31.6,30.6,29.83,East,80,0.0,0.0,96,0.00,,---,0.00,VWS V14.01,2013-01-20 02:30:00,
2013-01-19 18:35:00,31.8,30.8,29.83,East,80,0.0,0.0,96,0.00,,---,0.00,VWS V14.01,2013-01-20 02:35:00,
2013-01-19 18:40:00,31.8,30.8,29.83,East,80,0.0,0.0,96,0.00,,---,0.00,VWS V14.01,2013-01-20 02:40:00,
2013-01-19 18:46:00,32.0,31.0,29.83,East,80,0.0,0.0,96,0.00,,---,0.00,VWS V14.01,2013-01-20 02:46:00,
2013-01-19 18:51:00,31.8,30.8,29.83,East,80,0.0,0.0,96,0.00,,---,0.00,VWS V14.01,2013-01-20 02:51:00,
2013-01-19 18:56:00,31.8,30.8,29.83,East,81,0.0,0.0,96,0.00,,---,0.00,VWS V14.01,2013-01-20 02:56:00,
2013-01-19 19:02:00,31.8,30.8,29.83,East,81,0.0,0.0,96,0.00,,---,0.00,VWS V14.01,2013-01-20 03:02:00,
2013-01-19 19:07:00,31.6,30.6,29.83,ENE,77,0.0,0.0,96,0.00,,---,0.00,VWS V14.01,2013-01-20 03:07:00,
2013-01-19 19:12:00,31.1,30.1,29.83,ENE,77,0.0,0.0,96,0.00,,---,0.00,VWS V14.01,2013-01-20 03:12:00,
2013-01-19 19:17:00,31.3,30.3,29.83,ENE,77,0.0,0.0,96,0.00,,---,0.00,VWS V14.01,2013-01-20 03:17:00,
2013-01-19 19:22:00,31.3,30.3,29.83,ENE,77,0.0,0.0,96,0.00,,---,0.00,VWS V14.01,2013-01-20 03:22:00,
2013-01-19 19:27:00,31.3,30.3,29.83,ENE,77,0.0,0.0,96,0.00,,---,0.00,VWS V14.01,2013-01-20 03:27:00,
2013-01-19 19:32:00,31.3,30.3,29.83,ENE,77,0.0,0.0,96,0.00,,---,0.00,VWS V14.01,2013-01-20 03:32:00,
2013-01-19 19:37:00,31.3,30.3,29.83,ENE,77,0.0,0.0,96,0.00,,---,0.00,VWS V14.01,2013-01-20 03:37:00,
2013-01-19 19:42:00,31.3,30.3,29.83,ENE,77,0.0,0.0,96,0.00,,---,0.00,VWS V14.01,2013-01-20 03:42:00,
2013-01-19 19:47:00,31.3,30.3,29.83,ENE,77,0.0,0.0,96,0.00,,---,0.00,VWS V14.01,2013-01-20 03:47:00,
2013-01-19 19:52:00,31.1,30.1,29.83,East,80,0.0,0.0,96,0.00,,---,0.00,VWS V14.01,2013-01-20 03:52:00,
2013-01-19 19:57:00,31.1,30.1,29.83,East,80,0.0,0.0,96,0.00,,---,0.00,VWS V14.01,2013-01-20 03:57:00,
2013-01-19 20:02:00,31.1,30.1,29.83,East,80,0.0,0.0,96,0.00,,---,0.00,VWS V14.01,2013-01-20 04:02:00,
2013-01-19 20:07:00,31.3,30.3,29.83,East,80,0.0,0.0,96,0.00,,---,0.00,VWS V14.01,2013-01-20 04:07:00,
2013-01-19 20:12:00,31.3,30.3,29.83,East,80,0.0,0.0,96,0.00,,---,0.00,VWS V14.01,2013-01-20 04:12:00,
2013-01-19 20:18:00,31.3,30.3,29.83,East,80,0.0,0.0,96,0.00,,---,0.00,VWS V14.01,2013-01-20 04:18:00,
2013-01-19 20:23:00,31.1,30.1,29.83,NE,46,0.0,0.0,96,0.00,,---,0.00,VWS V14.01,2013-01-20 04:23:00,
2013-01-19 20:28:00,30.9,29.9,29.83,NE,46,0.0,0.0,96,0.00,,---,0.00,VWS V14.01,2013-01-20 04:28:00,
2013-01-19 20:33:00,31.1,30.1,29.83,NE,46,0.0,0.0,96,0.00,,---,0.00,VWS V14.01,2013-01-20 04:33:00,
2013-01-19 20:38:00,30.9,29.9,29.83,NE,46,0.0,0.0,96,0.00,,---,0.00,VWS V14.01,2013-01-20 04:38:00,
2013-01-19 20:43:00,30.7,29.7,29.83,NE,46,0.0,0.0,96,0.00,,---,0.00,VWS V14.01,2013-01-20 04:43:00,
2013-01-19 20:48:00,30.9,29.9,29.83,NE,46,0.0,0.0,96,0.00,,---,0.00,VWS V14.01,2013-01-20 04:48:00,
2013-01-19 20:53:00,30.4,29.4,29.83,NE,46,0.0,0.0,96,0.00,,---,0.00,VWS V14.01,2013-01-20 04:53:00,
2013-01-19 20:58:00,30.4,29.4,29.83,NE,46,0.0,0.0,96,0.00,,---,0.00,VWS V14.01,2013-01-20 04:58:00,
2013-01-19 21:00:00,30.6,29.6,29.83,NE,46,0.0,0.0,96,0.00,,---,0.00,VWS V14.01,2013-01-20 05:00:00,
2013-01-19 21:01:00,30.6,29.6,29.83,NE,46,0.0,0.0,96,0.00,,---,0.00,VWS V14.01,2013-01-20 05:01:00,
2013-01-19 21:02:00,30.6,29.6,29.83,NE,46,0.0,0.0,96,0.00,,---,0.00,VWS V14.01,2013-01-20 05:02:00,
2013-01-19 21:03:00,30.6,29.6,29.83,NE,46,0.0,0.0,96,0.00,,---,0.00,VWS V14.01,2013-01-20 05:03:00,
2013-01-19 21:08:00,30.7,29.7,29.83,ENE,76,2.7,2.7,96,0.00,,---,0.00,VWS V14.01,2013-01-20 05:08:00,
2013-01-19 21:13:00,30.7,29.7,29.83,SW,222,0.0,0.0,96,0.00,,---,0.00,VWS V14.01,2013-01-20 05:13:00,
2013-01-19 21:18:00,30.7,29.7,29.83,SSW,209,0.0,0.0,96,0.00,,---,0.00,VWS V14.01,2013-01-20 05:18:00,
2013-01-19 21:23:00,30.7,29.7,29.83,ESE,112,0.0,0.0,96,0.00,,---,0.00,VWS V14.01,2013-01-20 05:23:00,
2013-01-19 21:28:00,30.4,29.4,29.83,ESE,112,0.0,0.0,96,0.00,,---,0.00,VWS V14.01,2013-01-20 05:28:00,
2013-01-19 21:33:00,30.2,29.5,29.83,East,97,0.0,0.0,97,0.00,,---,0.00,VWS V14.01,2013-01-20 05:33:00,
2013-01-19 21:38:00,30.0,29.3,29.83,East,96,0.0,0.0,97,0.00,,---,0.00,VWS V14.01,2013-01-20 05:38:00,
2013-01-19 21:43:00,30.2,29.5,29.83,East,97,0.0,0.0,97,0.00,,---,0.00,VWS V14.01,2013-01-20 05:43:00,
2013-01-19 21:48:00,29.8,29.1,29.83,East,97,0.0,0.0,97,0.00,,---,0.00,VWS V14.01,2013-01-20 05:48:00,
2013-01-19 21:53:00,29.8,29.1,29.83,East,97,0.0,0.0,97,0.00,,---,0.00,VWS V14.01,2013-01-20 05:53:00,
2013-01-19 21:58:00,30.2,29.5,29.83,East,97,0.0,0.0,97,0.00,,---,0.00,VWS V14.01,2013-01-20 05:58:00,
2013-01-19 22:03:00,30.4,29.4,29.83,East,97,0.0,0.0,96,0.00,,---,0.00,VWS V14.01,2013-01-20 06:03:00,
2013-01-19 22:08:00,30.0,29.3,29.83,East,97,0.0,0.0,97,0.00,,---,0.00,VWS V14.01,2013-01-20 06:08:00,
2013-01-19 22:13:00,30.2,29.5,29.83,East,97,0.0,0.0,97,0.00,,---,0.00,VWS V14.01,2013-01-20 06:13:00,
2013-01-19 22:18:00,30.2,29.5,29.83,SSE,158,0.0,2.2,97,0.00,,---,0.00,VWS V14.01,2013-01-20 06:18:00,
2013-01-19 22:23:00,29.8,28.8,29.83,SSE,158,0.0,0.0,96,0.00,,---,0.00,VWS V14.01,2013-01-20 06:23:00,
2013-01-19 22:28:00,29.7,28.7,29.83,SE,124,0.0,0.0,96,0.00,,---,0.00,VWS V14.01,2013-01-20 06:28:00,
2013-01-19 22:33:00,30.0,29.0,29.83,SE,124,0.0,0.0,96,0.00,,---,0.00,VWS V14.01,2013-01-20 06:33:00,
2013-01-19 22:38:00,29.8,28.8,29.83,SE,124,0.0,0.0,96,0.00,,---,0.00,VWS V14.01,2013-01-20 06:38:00,
2013-01-19 22:43:00,29.8,28.8,29.83,ESE,121,0.0,0.0,96,0.00,,---,0.00,VWS V14.01,2013-01-20 06:43:00,
2013-01-19 22:48:00,30.0,29.0,29.83,ESE,121,0.0,0.0,96,0.00,,---,0.00,VWS V14.01,2013-01-20 06:48:00,
2013-01-19 22:53:00,30.0,29.0,29.83,ESE,121,0.0,0.0,96,0.00,,---,0.00,VWS V14.01,2013-01-20 06:53:00,
2013-01-19 22:58:00,30.0,29.0,29.83,ESE,121,0.0,0.0,96,0.00,,---,0.00,VWS V14.01,2013-01-20 06:58:00,
2013-01-19 23:03:00,30.0,29.0,29.83,ESE,121,0.0,0.0,96,0.00,,---,0.00,VWS V14.01,2013-01-20 07:03:00,
2013-01-19 23:08:00,30.2,29.2,29.83,SE,142,0.0,3.1,96,0.00,,---,0.00,VWS V14.01,2013-01-20 07:08:00,
2013-01-19 23:13:00,30.0,29.0,29.83,ESE,118,0.0,0.0,96,0.00,,---,0.00,VWS V14.01,2013-01-20 07:13:00,
2013-01-19 23:18:00,29.5,28.5,29.83,ENE,71,2.7,2.7,96,0.00,,---,0.00,VWS V14.01,2013-01-20 07:18:00,
2013-01-19 23:23:00,29.5,28.5,29.83,SE,142,0.0,0.0,96,0.00,,---,0.00,VWS V14.01,2013-01-20 07:23:00,
2013-01-19 23:28:00,29.8,28.8,29.83,SE,135,0.0,0.0,96,0.00,,---,0.00,VWS V14.01,2013-01-20 07:28:00,
2013-01-19 23:33:00,29.5,28.5,29.83,SE,135,0.0,0.0,96,0.00,,---,0.00,VWS V14.01,2013-01-20 07:33:00,
2013-01-19 23:38:00,29.5,28.5,29.83,SE,135,0.0,0.0,96,0.00,,---,0.00,VWS V14.01,2013-01-20 07:38:00,
2013-01-19 23:43:00,29.7,28.7,29.83,SE,135,0.0,0.0,96,0.00,,---,0.00,VWS V14.01,2013-01-20 07:43:00,
2013-01-19 23:48:00,29.5,28.5,29.83,SE,135,0.0,0.0,96,0.00,,---,0.00,VWS V14.01,2013-01-20 07:48:00,
2013-01-19 23:53:00,29.7,28.7,29.83,SE,135,0.0,0.0,96,0.00,,---,0.00,VWS V14.01,2013-01-20 07:53:00,
2013-01-19 23:58:00,29.5,28.5,29.83,SE,135,0.0,0.0,96,0.00,,---,0.00,VWS V14.01,2013-01-20 07:58:00,